Time;durP1;ratioP1;P1;durP2;ratioP2;P2;SDS_P1;SDS_P2;PMS_P1;PMS_P2;Temp;Humidity;BMP_temperature;BMP_pressure;BME280_temperature;BME280_humidity;BME280_pressure;Samples;Min_cycle;Max_cycle;Signal;HPM_P1;HPM_P2
2024/01/13 00:02:13;;;;;;;9.23;5.03;;;3.70;99.90;;;;;;5041709;28;20076;-69
2024/01/13 00:04:38;;;;;;;10.68;5.50;;;3.70;99.90;;;;;;5042300;28;20060;-68
2024/01/13 00:07:04;;;;;;;11.80;5.55;;;3.70;99.90;;;;;;5042700;28;20108;-68
2024/01/13 00:09:29;;;;;;;17.73;6.10;;;3.70;99.90;;;;;;5041421;28;20360;-70
2024/01/13 00:11:55;;;;;;;13.73;5.90;;;3.70;99.90;;;;;;5042450;28;20022;-69
2024/01/13 00:14:21;;;;;;;16.33;5.65;;;3.70;99.90;;;;;;5041314;28;20033;-70
2024/01/13 00:16:46;;;;;;;11.50;5.68;;;3.70;99.90;;;;;;5041234;28;20072;-69
2024/01/13 00:19:12;;;;;;;15.50;5.68;;;3.70;99.90;;;;;;5042357;28;20612;-69
2024/01/13 00:21:38;;;;;;;14.30;5.13;;;3.70;99.90;;;;;;5041103;28;20068;-69
2024/01/13 00:24:04;;;;;;;8.55;4.95;;;3.70;99.90;;;;;;5042533;28;20085;-68
2024/01/13 00:26:30;;;;;;;14.48;5.53;;;3.70;99.90;;;;;;5041324;28;20024;-69
2024/01/13 00:28:55;;;;;;;11.93;5.47;;;3.70;99.90;;;;;;5042497;28;20085;-71
2024/01/13 00:31:21;;;;;;;14.25;6.03;;;3.70;99.90;;;;;;5041431;28;20026;-70
2024/01/13 00:33:47;;;;;;;10.57;5.03;;;3.70;99.90;;;;;;5040676;28;20041;-70
2024/01/13 00:36:12;;;;;;;12.63;5.03;;;3.70;99.90;;;;;;5042557;28;20021;-69
2024/01/13 00:38:38;;;;;;;11.95;4.47;;;3.60;99.90;;;;;;5042351;28;20048;-69
2024/01/13 00:41:05;;;;;;;11.30;4.80;;;3.70;99.90;;;;;;5042158;28;20053;-70
2024/01/13 00:43:30;;;;;;;16.85;5.53;;;3.70;99.90;;;;;;5041812;28;20024;-71
2024/01/13 00:45:56;;;;;;;12.93;4.57;;;3.70;99.90;;;;;;5042325;28;20022;-71
2024/01/13 00:48:21;;;;;;;16.42;5.18;;;3.60;99.90;;;;;;5042293;28;20045;-71
2024/01/13 00:50:47;;;;;;;13.90;4.57;;;3.60;99.90;;;;;;5040546;28;20379;-70
2024/01/13 00:53:13;;;;;;;13.80;5.15;;;3.60;99.90;;;;;;5041293;28;20093;-69
2024/01/13 00:55:38;;;;;;;10.73;4.13;;;3.70;99.90;;;;;;5041802;28;20029;-70
2024/01/13 00:58:04;;;;;;;13.02;4.82;;;3.60;99.90;;;;;;5042306;28;20113;-71
2024/01/13 01:00:29;;;;;;;12.27;4.93;;;3.60;99.90;;;;;;5042253;28;20486;-69
2024/01/13 01:02:55;;;;;;;13.82;4.80;;;3.70;99.90;;;;;;5041658;28;20074;-69
2024/01/13 01:05:20;;;;;;;12.90;5.05;;;3.60;99.90;;;;;;5042405;28;20386;-70
2024/01/13 01:07:47;;;;;;;16.73;5.57;;;3.60;99.90;;;;;;5040911;28;20104;-69
2024/01/13 01:10:13;;;;;;;14.90;5.35;;;3.60;99.90;;;;;;5041919;28;20026;-68
2024/01/13 01:12:39;;;;;;;17.80;5.45;;;3.60;99.90;;;;;;5042202;28;20048;-69
2024/01/13 01:15:05;;;;;;;15.10;4.60;;;3.60;99.90;;;;;;5041969;28;20044;-70
2024/01/13 01:17:30;;;;;;;16.90;5.65;;;3.60;99.90;;;;;;5040613;28;20029;-69
2024/01/13 01:19:56;;;;;;;20.63;7.20;;;3.60;99.90;;;;;;5042077;28;20089;-69
2024/01/13 01:22:22;;;;;;;16.80;6.63;;;3.60;99.90;;;;;;5040618;28;20108;-71
2024/01/13 01:24:48;;;;;;;19.60;7.78;;;3.60;99.90;;;;;;5040511;28;20501;-68
2024/01/13 01:27:13;;;;;;;18.27;7.05;;;3.70;99.90;;;;;;5042140;28;20113;-67
2024/01/13 01:29:39;;;;;;;16.92;6.72;;;3.70;99.90;;;;;;5041663;28;20029;-68
2024/01/13 01:32:05;;;;;;;21.58;6.82;;;3.60;99.90;;;;;;5041306;28;20386;-69
2024/01/13 01:34:30;;;;;;;19.30;7.07;;;3.60;99.90;;;;;;5041844;28;20175;-69
2024/01/13 01:36:56;;;;;;;17.05;6.45;;;3.60;99.90;;;;;;5043370;28;20021;-71
2024/01/13 01:39:21;;;;;;;21.95;6.53;;;3.60;99.90;;;;;;5045472;28;20033;-70
2024/01/13 01:41:47;;;;;;;25.25;6.28;;;3.70;99.90;;;;;;5044344;28;20096;-69
2024/01/13 01:44:12;;;;;;;15.20;5.60;;;3.60;99.90;;;;;;5045416;28;20034;-69
2024/01/13 01:46:39;;;;;;;17.13;5.72;;;3.60;99.90;;;;;;5045231;28;20029;-69
2024/01/13 01:49:05;;;;;;;18.20;5.80;;;3.60;99.90;;;;;;5045552;28;20099;-70
2024/01/13 01:51:32;;;;;;;16.55;5.65;;;3.60;99.90;;;;;;5044437;28;20036;-70
2024/01/13 01:53:59;;;;;;;17.88;5.03;;;3.60;99.90;;;;;;5045269;28;20041;-68
2024/01/13 01:56:31;;;;;;;13.45;5.43;;;3.60;99.90;;;;;;5044825;28;20085;-70
2024/01/13 01:58:57;;;;;;;19.38;6.15;;;3.60;99.90;;;;;;5044859;28;20025;-70
2024/01/13 02:01:23;;;;;;;16.20;5.40;;;3.60;99.90;;;;;;5045271;28;20629;-69
2024/01/13 02:03:49;;;;;;;16.00;5.70;;;3.60;99.90;;;;;;5045088;28;20045;-68
2024/01/13 02:06:16;;;;;;;14.48;5.78;;;3.60;99.90;;;;;;5043410;28;20032;-68
2024/01/13 02:08:41;;;;;;;12.13;5.45;;;3.50;99.90;;;;;;5045043;28;20048;-69
2024/01/13 02:11:10;;;;;;;15.85;5.18;;;3.60;99.90;;;;;;5044791;28;20450;-68
2024/01/13 02:13:36;;;;;;;14.52;5.18;;;3.50;99.90;;;;;;5042824;28;20034;-68
2024/01/13 02:16:02;;;;;;;20.55;6.22;;;3.50;99.90;;;;;;5042893;28;20040;-68
2024/01/13 02:18:28;;;;;;;25.02;5.82;;;3.50;99.90;;;;;;5044473;28;20044;-68
2024/01/13 02:20:54;;;;;;;13.15;4.68;;;3.50;99.90;;;;;;5044344;28;20029;-69
2024/01/13 02:23:19;;;;;;;11.88;4.43;;;3.50;99.90;;;;;;5043767;28;20027;-68
2024/01/13 02:25:45;;;;;;;9.50;4.28;;;3.50;99.90;;;;;;5044557;28;20041;-69
2024/01/13 02:28:11;;;;;;;9.20;3.88;;;3.50;99.90;;;;;;5044668;28;20036;-68
2024/01/13 02:30:36;;;;;;;11.18;4.03;;;3.50;99.90;;;;;;5044644;28;20073;-70
2024/01/13 02:33:02;;;;;;;12.88;3.92;;;3.50;99.90;;;;;;5044351;28;20061;-67
2024/01/13 02:35:27;;;;;;;13.10;4.93;;;3.50;99.90;;;;;;5044518;28;20040;-67
2024/01/13 02:37:53;;;;;;;7.93;4.00;;;3.50;99.90;;;;;;5044637;28;20030;-67
2024/01/13 02:40:18;;;;;;;10.93;4.55;;;3.50;99.90;;;;;;5042862;28;20120;-68
2024/01/13 02:42:44;;;;;;;11.20;4.70;;;3.50;99.90;;;;;;5044521;28;20061;-67
2024/01/13 02:45:09;;;;;;;13.52;4.82;;;3.50;99.90;;;;;;5041823;28;20453;-68
2024/01/13 02:47:48;;;;;;;15.60;5.28;;;3.50;99.90;;;;;;5043310;28;20359;-68
2024/01/13 02:50:14;;;;;;;12.50;5.53;;;3.50;99.90;;;;;;5043015;28;20036;-68
2024/01/13 02:52:40;;;;;;;19.10;5.50;;;3.50;99.90;;;;;;5044168;28;20101;-69
2024/01/13 02:55:08;;;;;;;14.93;5.28;;;3.50;99.90;;;;;;5043782;28;20116;-67
2024/01/13 02:57:34;;;;;;;15.65;5.82;;;3.50;99.90;;;;;;5044001;28;20113;-69
2024/01/13 02:59:59;;;;;;;17.88;5.93;;;3.50;99.90;;;;;;5044029;28;20021;-69
2024/01/13 03:02:25;;;;;;;18.20;5.93;;;3.50;99.90;;;;;;5043645;28;20018;-68
2024/01/13 03:04:51;;;;;;;20.45;6.07;;;3.50;99.90;;;;;;5043754;28;20046;-70
2024/01/13 03:07:16;;;;;;;23.92;6.43;;;3.50;99.90;;;;;;5043940;28;20532;-68
2024/01/13 03:09:42;;;;;;;12.30;5.90;;;3.50;99.90;;;;;;5043829;28;20081;-68
2024/01/13 03:12:07;;;;;;;13.98;5.60;;;3.40;99.90;;;;;;5044047;28;20071;-72
2024/01/13 03:14:33;;;;;;;13.43;5.95;;;3.50;99.90;;;;;;5042031;28;20029;-68
2024/01/13 03:16:58;;;;;;;14.32;5.18;;;3.40;99.90;;;;;;5043667;28;20025;-69
2024/01/13 03:19:24;;;;;;;19.08;6.22;;;3.50;99.90;;;;;;5043772;28;20033;-70
2024/01/13 03:21:50;;;;;;;11.38;5.72;;;3.50;99.90;;;;;;5043078;28;20364;-69
2024/01/13 03:24:15;;;;;;;16.45;5.70;;;3.40;99.90;;;;;;5042315;28;20030;-69
2024/01/13 03:26:41;;;;;;;12.13;5.93;;;3.50;99.90;;;;;;5043506;28;20035;-70
2024/01/13 03:29:06;;;;;;;15.07;6.10;;;3.40;99.90;;;;;;5043205;28;20056;-69
2024/01/13 03:31:32;;;;;;;12.07;5.63;;;3.40;99.90;;;;;;5043409;28;20707;-69
2024/01/13 03:33:57;;;;;;;13.00;6.20;;;3.40;99.90;;;;;;5042063;28;20044;-68
2024/01/13 03:36:23;;;;;;;12.43;5.72;;;3.40;99.90;;;;;;5042992;28;20022;-70
2024/01/13 03:38:48;;;;;;;12.68;5.78;;;3.40;99.90;;;;;;5043525;28;20041;-70
2024/01/13 03:41:17;;;;;;;11.18;5.95;;;3.30;99.90;;;;;;5043119;28;20017;-67
2024/01/13 03:43:43;;;;;;;14.50;5.80;;;3.30;99.90;;;;;;5042778;28;20025;-68
2024/01/13 03:46:08;;;;;;;13.85;6.07;;;3.30;99.90;;;;;;5043198;28;20039;-67
2024/01/13 03:48:34;;;;;;;12.73;5.22;;;3.30;99.90;;;;;;5042725;28;20033;-69
2024/01/13 03:51:00;;;;;;;11.65;5.57;;;3.30;99.90;;;;;;5043047;28;20028;-69
2024/01/13 03:53:28;;;;;;;14.82;5.63;;;3.30;99.90;;;;;;5043135;28;20398;-68
2024/01/13 03:55:54;;;;;;;13.50;5.63;;;3.30;99.90;;;;;;5041583;28;20025;-70
2024/01/13 03:58:20;;;;;;;10.48;5.32;;;3.30;99.90;;;;;;5043042;28;20060;-70
2024/01/13 04:00:46;;;;;;;12.05;5.68;;;3.30;99.90;;;;;;5043012;28;20036;-71
2024/01/13 04:03:11;;;;;;;14.68;6.13;;;3.30;99.90;;;;;;5041856;28;20196;-68
2024/01/13 04:05:37;;;;;;;16.98;6.30;;;3.30;99.90;;;;;;5042691;28;20502;-68
2024/01/13 04:08:03;;;;;;;12.27;5.88;;;3.30;99.90;;;;;;5042858;28;20060;-69
2024/01/13 04:10:29;;;;;;;15.73;4.82;;;3.30;99.90;;;;;;5041104;28;20025;-69
2024/01/13 04:12:56;;;;;;;13.63;6.07;;;3.30;99.90;;;;;;5040244;28;20025;-69
2024/01/13 04:15:22;;;;;;;13.57;5.63;;;3.30;99.90;;;;;;5042343;28;20109;-69
2024/01/13 04:17:47;;;;;;;15.32;6.30;;;3.30;99.90;;;;;;5041066;28;20487;-71
2024/01/13 04:20:13;;;;;;;11.45;5.68;;;3.30;99.90;;;;;;5042680;28;20140;-71
2024/01/13 04:22:38;;;;;;;9.65;5.10;;;3.30;99.90;;;;;;5042596;28;20128;-68
2024/01/13 04:25:04;;;;;;;13.30;5.47;;;3.30;99.90;;;;;;5042146;28;20025;-68
2024/01/13 04:27:30;;;;;;;11.77;5.60;;;3.30;99.90;;;;;;5040765;28;20036;-70
2024/01/13 04:29:55;;;;;;;11.18;5.70;;;3.30;99.90;;;;;;5042341;28;20030;-70
2024/01/13 04:32:21;;;;;;;10.52;4.97;;;3.30;99.90;;;;;;5042345;28;20105;-70
2024/01/13 04:34:46;;;;;;;10.57;5.45;;;3.30;99.90;;;;;;5041215;28;20471;-70
2024/01/13 04:37:12;;;;;;;12.32;5.07;;;3.30;99.90;;;;;;5042383;28;20072;-71
2024/01/13 04:39:37;;;;;;;13.40;5.30;;;3.30;99.90;;;;;;5040747;28;20025;-70
2024/01/13 04:42:03;;;;;;;11.63;5.43;;;3.30;99.90;;;;;;5042365;28;20026;-70
2024/01/13 04:44:29;;;;;;;10.85;4.72;;;3.30;99.90;;;;;;5041823;28;20459;-70
2024/01/13 04:46:55;;;;;;;7.65;4.20;;;3.30;99.90;;;;;;5040481;28;20044;-70
2024/01/13 04:49:20;;;;;;;10.90;4.68;;;3.30;99.90;;;;;;5042623;28;20036;-69
2024/01/13 04:51:46;;;;;;;8.82;4.32;;;3.30;99.90;;;;;;5042395;28;20043;-69
2024/01/13 04:54:12;;;;;;;9.55;4.50;;;3.30;99.90;;;;;;5042013;28;20033;-68
2024/01/13 04:56:37;;;;;;;12.63;4.75;;;3.30;99.90;;;;;;5042263;28;20036;-69
2024/01/13 04:59:03;;;;;;;9.70;4.63;;;3.30;99.90;;;;;;5040582;28;20029;-69
2024/01/13 05:01:29;;;;;;;14.13;5.10;;;3.30;99.90;;;;;;5038684;28;20033;-69
2024/01/13 05:03:54;;;;;;;13.45;4.13;;;3.30;99.90;;;;;;5039385;28;20120;-68
2024/01/13 05:06:20;;;;;;;12.68;5.00;;;3.40;99.90;;;;;;5038345;28;20474;-69
2024/01/13 05:08:46;;;;;;;11.32;4.45;;;3.40;99.90;;;;;;5041960;28;20036;-67
2024/01/13 05:11:11;;;;;;;9.23;4.15;;;3.40;99.90;;;;;;5040321;28;20064;-68
2024/01/13 05:13:37;;;;;;;10.68;4.45;;;3.30;99.90;;;;;;5045659;28;20038;-66
2024/01/13 05:16:03;;;;;;;10.25;4.10;;;3.30;99.90;;;;;;5045905;28;20037;-67
2024/01/13 05:18:28;;;;;;;9.07;4.40;;;3.30;99.90;;;;;;5045874;28;20013;-68
2024/01/13 05:20:54;;;;;;;10.10;4.00;;;3.30;99.90;;;;;;5044318;28;20025;-69
2024/01/13 05:23:19;;;;;;;9.93;3.92;;;3.30;99.90;;;;;;5041661;28;20033;-67
2024/01/13 05:25:45;;;;;;;8.25;3.67;;;3.30;99.90;;;;;;5044836;28;20105;-68
2024/01/13 05:28:10;;;;;;;7.90;3.80;;;3.30;99.90;;;;;;5041536;28;20048;-68
2024/01/13 05:30:36;;;;;;;10.68;4.55;;;3.30;99.90;;;;;;5044901;28;20056;-69
2024/01/13 05:33:02;;;;;;;7.43;3.70;;;3.30;99.90;;;;;;5045487;28;20485;-68
2024/01/13 05:35:28;;;;;;;8.93;3.78;;;3.30;99.90;;;;;;5044739;28;20033;-68
2024/01/13 05:37:53;;;;;;;7.88;4.15;;;3.30;99.90;;;;;;5045396;28;20021;-69
2024/01/13 05:40:20;;;;;;;10.70;4.40;;;3.30;99.90;;;;;;5042661;28;20045;-67
2024/01/13 05:42:46;;;;;;;9.23;3.90;;;3.30;99.90;;;;;;5044080;28;20104;-67
2024/01/13 05:45:12;;;;;;;8.45;3.45;;;3.30;99.90;;;;;;5045113;28;20033;-68
2024/01/13 05:47:37;;;;;;;9.73;4.18;;;3.30;99.90;;;;;;5045279;28;20041;-69
2024/01/13 05:50:03;;;;;;;10.40;4.40;;;3.40;99.90;;;;;;5044892;28;20025;-70
2024/01/13 05:52:30;;;;;;;12.85;4.30;;;3.30;99.90;;;;;;5045238;28;20028;-68
2024/01/13 05:54:56;;;;;;;11.68;4.03;;;3.30;99.90;;;;;;5043620;28;20128;-69
2024/01/13 05:57:21;;;;;;;9.68;4.13;;;3.30;99.90;;;;;;5042944;28;20375;-70
2024/01/13 05:59:47;;;;;;;11.93;4.40;;;3.30;99.90;;;;;;5045287;28;20032;-69
2024/01/13 06:02:13;;;;;;;9.38;4.78;;;3.30;99.90;;;;;;5042657;28;20026;-68
2024/01/13 06:04:39;;;;;;;9.07;4.13;;;3.30;99.90;;;;;;5035541;28;20076;-69
2024/01/13 06:07:05;;;;;;;10.35;4.40;;;3.30;99.90;;;;;;5040476;28;20034;-69
2024/01/13 06:09:31;;;;;;;10.80;4.85;;;3.30;99.90;;;;;;5044707;28;20085;-68
2024/01/13 06:11:57;;;;;;;9.82;4.38;;;3.30;99.90;;;;;;5044545;28;20025;-70
2024/01/13 06:14:23;;;;;;;11.05;4.68;;;3.30;99.90;;;;;;5044741;28;20037;-70
2024/01/13 06:16:51;;;;;;;11.43;5.20;;;3.30;99.90;;;;;;5043081;28;20029;-70
2024/01/13 06:19:17;;;;;;;13.40;5.28;;;3.30;99.90;;;;;;5043745;28;20030;-69
2024/01/13 06:21:43;;;;;;;10.60;4.60;;;3.30;99.90;;;;;;5043138;28;20033;-67
2024/01/13 06:24:10;;;;;;;12.18;5.03;;;3.30;99.90;;;;;;5043445;28;20032;-68
2024/01/13 06:26:40;;;;;;;8.38;4.25;;;3.20;99.90;;;;;;5037505;28;20121;-68
2024/01/13 06:29:07;;;;;;;10.63;4.55;;;3.20;99.90;;;;;;5043045;28;20022;-68
2024/01/13 06:31:32;;;;;;;8.50;4.20;;;3.20;99.90;;;;;;5044316;28;20036;-69
2024/01/13 06:33:58;;;;;;;9.93;4.50;;;3.20;99.90;;;;;;5042932;28;20033;-70
2024/01/13 06:36:24;;;;;;;11.75;5.07;;;3.20;99.90;;;;;;5042726;28;20493;-69
2024/01/13 06:38:50;;;;;;;11.32;4.35;;;3.20;99.90;;;;;;5040186;28;20048;-67
2024/01/13 06:41:15;;;;;;;9.63;4.10;;;3.20;99.90;;;;;;5041544;28;20021;-68
2024/01/13 06:43:41;;;;;;;10.25;4.32;;;3.20;99.90;;;;;;5041576;28;20021;-67
2024/01/13 06:46:07;;;;;;;7.47;3.70;;;3.20;99.90;;;;;;5043886;28;20064;-67
2024/01/13 06:48:33;;;;;;;9.70;3.80;;;3.20;99.90;;;;;;5043447;28;20064;-67
2024/01/13 06:51:02;;;;;;;9.60;4.63;;;3.20;99.90;;;;;;5042215;28;20037;-70
2024/01/13 06:53:27;;;;;;;7.72;3.70;;;3.20;99.90;;;;;;5042373;28;20124;-68
2024/01/13 06:55:53;;;;;;;7.50;3.70;;;3.20;99.90;;;;;;5043403;28;20021;-69
2024/01/13 06:58:24;;;;;;;8.52;3.53;;;3.20;99.90;;;;;;5041130;28;20037;-69
2024/01/13 07:00:51;;;;;;;7.75;3.20;;;3.30;99.90;;;;;;5041822;28;20108;-68
2024/01/13 07:03:16;;;;;;;11.18;3.80;;;3.20;99.90;;;;;;5037104;28;20144;-69
2024/01/13 07:05:42;;;;;;;6.40;3.17;;;3.20;99.90;;;;;;5042452;28;20411;-68
2024/01/13 07:08:08;;;;;;;9.00;3.30;;;3.20;99.90;;;;;;5039588;28;20038;-69
2024/01/13 07:10:34;;;;;;;6.93;3.13;;;3.20;99.90;;;;;;5043185;28;20046;-70
2024/01/13 07:13:00;;;;;;;5.85;2.75;;;3.30;99.90;;;;;;5042744;28;20383;-68
2024/01/13 07:15:26;;;;;;;6.88;3.25;;;3.20;99.90;;;;;;5039896;28;20092;-68
2024/01/13 07:17:52;;;;;;;9.50;3.90;;;3.20;99.90;;;;;;5043569;28;20032;-68
2024/01/13 07:20:21;;;;;;;7.70;3.67;;;3.20;99.90;;;;;;5043873;28;20045;-70
2024/01/13 07:22:52;;;;;;;7.80;3.78;;;3.20;99.90;;;;;;5042834;28;20514;-69
2024/01/13 07:25:18;;;;;;;7.50;3.60;;;3.20;99.90;;;;;;5040076;28;20053;-69
2024/01/13 07:27:43;;;;;;;8.95;3.92;;;3.20;99.90;;;;;;5041977;28;20037;-68
2024/01/13 07:30:11;;;;;;;9.05;4.13;;;3.20;99.90;;;;;;5039146;28;20036;-67
2024/01/13 07:32:37;;;;;;;7.90;4.00;;;3.20;99.90;;;;;;5040410;28;20035;-69
2024/01/13 07:35:03;;;;;;;12.70;4.35;;;3.20;99.90;;;;;;5035128;28;20034;-66
2024/01/13 07:37:28;;;;;;;11.57;3.80;;;3.20;99.90;;;;;;5039130;28;20029;-70
2024/01/13 07:39:55;;;;;;;7.50;3.53;;;3.20;99.90;;;;;;5039557;28;20025;-69
2024/01/13 07:42:21;;;;;;;8.52;3.85;;;3.20;99.90;;;;;;5041437;28;20033;-70
2024/01/13 07:44:47;;;;;;;8.13;4.18;;;3.20;99.90;;;;;;5041094;28;20028;-69
2024/01/13 07:47:12;;;;;;;10.48;4.38;;;3.20;99.90;;;;;;5040903;28;20037;-68
2024/01/13 07:49:38;;;;;;;8.95;4.35;;;3.20;99.90;;;;;;5042695;28;20029;-69
2024/01/13 07:52:04;;;;;;;8.07;3.75;;;3.20;99.90;;;;;;5041431;28;20025;-69
2024/01/13 07:54:29;;;;;;;7.88;3.97;;;3.20;99.90;;;;;;5040499;28;20053;-68
2024/01/13 07:56:55;;;;;;;10.95;4.45;;;3.30;99.90;;;;;;5040407;28;20029;-68
2024/01/13 07:59:21;;;;;;;10.27;3.72;;;3.30;99.90;;;;;;5040077;28;20033;-68
2024/01/13 08:01:47;;;;;;;9.32;4.38;;;3.20;99.90;;;;;;5040486;28;20018;-69
2024/01/13 08:04:15;;;;;;;9.45;4.10;;;3.30;99.90;;;;;;5042413;28;20062;-67
2024/01/13 08:06:41;;;;;;;13.02;6.70;;;3.20;99.90;;;;;;5036044;28;20045;-69
2024/01/13 08:09:06;;;;;;;18.98;6.03;;;3.30;99.90;;;;;;5039843;28;20025;-66
2024/01/13 08:11:32;;;;;;;9.40;4.78;;;3.30;99.90;;;;;;5039146;28;20467;-68
2024/01/13 08:13:58;;;;;;;10.07;4.22;;;3.30;99.90;;;;;;5039803;28;20104;-67
2024/01/13 08:16:23;;;;;;;9.85;3.60;;;3.30;99.90;;;;;;5040357;28;20052;-69
2024/01/13 08:18:49;;;;;;;8.35;3.35;;;3.30;99.90;;;;;;5040094;28;20025;-69
2024/01/13 08:21:15;;;;;;;7.75;3.53;;;3.30;99.90;;;;;;5042336;28;20029;-70
2024/01/13 08:23:41;;;;;;;8.80;3.28;;;3.30;99.90;;;;;;5041987;28;20027;-70
2024/01/13 08:26:06;;;;;;;10.85;4.15;;;3.30;99.90;;;;;;5040705;28;20100;-69
2024/01/13 08:28:33;;;;;;;10.10;3.58;;;3.30;99.90;;;;;;5039543;28;20017;-69
2024/01/13 08:30:59;;;;;;;8.18;3.53;;;3.30;99.90;;;;;;5041182;28;20021;-69
2024/01/13 08:33:25;;;;;;;7.03;3.42;;;3.30;99.90;;;;;;5041932;28;20041;-69
2024/01/13 08:35:50;;;;;;;6.35;3.38;;;3.30;99.90;;;;;;5042697;28;20085;-68
2024/01/13 08:38:16;;;;;;;9.07;3.10;;;3.30;99.90;;;;;;5042392;28;20045;-68
2024/01/13 08:40:44;;;;;;;7.00;3.55;;;3.30;99.90;;;;;;5039137;28;20029;-68
2024/01/13 08:43:09;;;;;;;6.85;3.00;;;3.30;99.90;;;;;;5039612;28;20105;-68
2024/01/13 08:45:35;;;;;;;7.07;3.50;;;3.30;99.90;;;;;;5039920;28;20057;-69
2024/01/13 08:48:01;;;;;;;9.88;3.78;;;3.30;99.90;;;;;;5037659;28;20064;-68
2024/01/13 08:50:27;;;;;;;10.55;3.47;;;3.30;99.90;;;;;;5041656;28;20029;-69
2024/01/13 08:52:55;;;;;;;9.70;3.63;;;3.30;99.90;;;;;;5040466;28;20505;-69
2024/01/13 08:55:26;;;;;;;6.75;3.63;;;3.30;99.90;;;;;;5034707;28;20034;-69
2024/01/13 08:57:52;;;;;;;9.43;3.45;;;3.30;99.90;;;;;;5037665;28;20029;-68
2024/01/13 09:00:18;;;;;;;7.40;3.65;;;3.30;99.90;;;;;;5039906;28;20447;-67
2024/01/13 09:02:44;;;;;;;9.32;4.28;;;3.40;99.90;;;;;;5039267;28;20060;-68
2024/01/13 09:05:10;;;;;;;11.25;4.63;;;3.40;99.90;;;;;;5039729;28;20519;-67
2024/01/13 09:07:37;;;;;;;9.25;3.97;;;3.40;99.90;;;;;;5031487;28;20025;-68
2024/01/13 09:10:04;;;;;;;8.27;3.72;;;3.40;99.90;;;;;;5036644;28;20231;-68
2024/01/13 09:12:29;;;;;;;7.00;3.05;;;3.40;99.90;;;;;;5028648;28;20155;-70
2024/01/13 09:14:55;;;;;;;8.52;3.22;;;3.40;99.90;;;;;;5037778;28;20069;-70
2024/01/13 09:17:21;;;;;;;7.15;3.20;;;3.40;99.90;;;;;;5039835;28;20033;-67
2024/01/13 09:19:46;;;;;;;10.15;3.85;;;3.40;99.90;;;;;;5036708;28;20540;-69
2024/01/13 09:22:12;;;;;;;7.38;3.15;;;3.50;99.90;;;;;;5041180;28;20089;-67
2024/01/13 09:24:38;;;;;;;7.28;3.40;;;3.50;99.90;;;;;;5039386;28;20063;-67
2024/01/13 09:27:04;;;;;;;11.98;3.03;;;3.50;99.90;;;;;;5039530;28;20117;-68
2024/01/13 09:29:29;;;;;;;6.93;2.92;;;3.40;99.90;;;;;;5038835;28;20021;-69
2024/01/13 09:31:55;;;;;;;5.03;2.60;;;3.50;99.90;;;;;;5040205;28;20033;-68
2024/01/13 09:34:21;;;;;;;5.72;2.50;;;3.50;99.90;;;;;;5040076;28;20033;-69
2024/01/13 09:36:46;;;;;;;6.68;3.15;;;3.50;99.90;;;;;;5039390;28;20746;-68
2024/01/13 09:39:14;;;;;;;6.80;3.25;;;3.60;99.90;;;;;;5040608;28;20018;-69
2024/01/13 09:41:40;;;;;;;7.00;2.95;;;3.60;99.90;;;;;;5039628;28;20034;-69
2024/01/13 09:44:22;;;;;;;5.18;2.90;;;3.60;99.90;;;;;;5040019;28;20017;-69
2024/01/13 09:46:51;;;;;;;7.90;3.33;;;3.70;99.90;;;;;;5034233;28;20037;-69
2024/01/13 09:49:29;;;;;;;5.68;2.58;;;3.70;99.90;;;;;;5030925;28;20053;-68
2024/01/13 09:51:56;;;;;;;6.53;2.85;;;3.70;99.90;;;;;;5038922;28;20022;-69
2024/01/13 09:54:27;;;;;;;4.85;2.63;;;3.70;99.90;;;;;;5038174;28;20128;-70
2024/01/13 09:56:54;;;;;;;5.78;2.50;;;3.70;99.90;;;;;;5038997;28;20482;-70
2024/01/13 09:59:22;;;;;;;6.32;2.70;;;3.70;99.90;;;;;;5043317;28;20025;-68
2024/01/13 10:01:51;;;;;;;8.65;2.97;;;3.70;99.90;;;;;;5043077;28;20025;-69
2024/01/13 10:04:17;;;;;;;5.55;2.53;;;3.70;99.90;;;;;;5043046;28;20045;-69
2024/01/13 10:06:44;;;;;;;6.50;3.28;;;3.60;99.90;;;;;;5042032;28;21630;-69
2024/01/13 10:09:10;;;;;;;14.45;5.85;;;3.60;99.90;;;;;;5043024;28;20044;-70
2024/01/13 10:11:36;;;;;;;11.77;5.22;;;3.60;99.90;;;;;;5040956;28;20021;-69
2024/01/13 10:14:11;;;;;;;8.30;3.70;;;3.60;99.90;;;;;;5041524;28;21090;-69
2024/01/13 10:16:37;;;;;;;11.02;5.00;;;3.60;99.90;;;;;;5040549;28;20034;-69
2024/01/13 10:19:05;;;;;;;9.95;4.80;;;3.60;99.90;;;;;;5040240;28;20044;-69
2024/01/13 10:21:32;;;;;;;13.75;5.47;;;3.60;99.90;;;;;;5039976;28;20454;-69
2024/01/13 10:23:59;;;;;;;12.98;5.85;;;3.60;99.90;;;;;;5042005;28;20040;-70
2024/01/13 10:26:25;;;;;;;13.93;6.20;;;3.60;99.90;;;;;;5042912;28;20025;-69
2024/01/13 10:28:51;;;;;;;21.67;8.43;;;3.60;99.90;;;;;;5043258;28;20026;-68
2024/01/13 10:31:18;;;;;;;24.17;9.18;;;3.60;99.90;;;;;;5040670;28;20060;-68
2024/01/13 10:33:47;;;;;;;21.75;9.35;;;3.60;99.90;;;;;;5041733;28;20045;-68
2024/01/13 10:36:18;;;;;;;23.10;9.90;;;3.60;99.90;;;;;;5037973;28;20029;-68
2024/01/13 10:38:44;;;;;;;26.02;10.23;;;3.60;99.90;;;;;;5041670;28;20069;-69
2024/01/13 10:41:10;;;;;;;26.70;11.07;;;3.70;99.90;;;;;;5038105;28;20029;-69
2024/01/13 10:43:38;;;;;;;29.08;12.02;;;3.60;99.90;;;;;;5040387;28;20040;-68
2024/01/13 10:46:13;;;;;;;35.70;11.93;;;3.70;99.90;;;;;;5043086;28;20030;-69
2024/01/13 10:48:43;;;;;;;32.58;13.68;;;3.70;99.90;;;;;;5039653;28;20049;-68
2024/01/13 10:51:33;;;;;;;35.65;13.35;;;3.70;99.90;;;;;;5040725;28;20030;-69
2024/01/13 10:54:00;;;;;;;36.70;14.05;;;3.70;99.90;;;;;;5040845;28;20025;-68
2024/01/13 10:56:28;;;;;;;41.53;15.48;;;3.70;99.90;;;;;;5039857;28;20034;-68
2024/01/13 10:58:55;;;;;;;43.60;16.17;;;3.70;99.90;;;;;;5039865;28;20033;-68
2024/01/13 11:01:21;;;;;;;43.58;15.88;;;3.70;99.90;;;;;;5041370;28;20029;-68
2024/01/13 11:03:49;;;;;;;49.15;16.20;;;3.70;99.90;;;;;;5039995;28;20057;-67
2024/01/13 11:06:15;;;;;;;40.85;16.05;;;3.70;99.90;;;;;;5042729;28;20073;-68
2024/01/13 11:08:42;;;;;;;42.55;17.08;;;3.70;99.90;;;;;;5040311;28;20038;-68
2024/01/13 11:11:10;;;;;;;43.30;17.70;;;3.80;99.90;;;;;;5042214;28;20021;-68
2024/01/13 11:13:47;;;;;;;52.00;18.73;;;3.80;99.90;;;;;;5043224;28;20041;-68
2024/01/13 11:16:17;;;;;;;54.47;20.08;;;3.90;99.90;;;;;;5043519;28;20025;-68
2024/01/13 11:18:48;;;;;;;49.97;20.15;;;3.90;99.90;;;;;;5041419;28;20033;-68
2024/01/13 11:21:16;;;;;;;50.33;19.05;;;3.90;99.90;;;;;;5040162;28;20040;-68
2024/01/13 11:23:51;;;;;;;55.25;18.55;;;3.90;99.90;;;;;;5040863;28;20029;-68
2024/01/13 11:26:19;;;;;;;52.55;19.15;;;3.90;99.90;;;;;;5041096;28;20029;-69
2024/01/13 11:28:52;;;;;;;49.60;19.38;;;3.90;99.90;;;;;;5041397;28;20044;-70
2024/01/13 11:31:30;;;;;;;59.13;20.15;;;3.90;99.90;;;;;;5040482;28;20037;-67
2024/01/13 11:33:58;;;;;;;51.60;19.13;;;3.90;99.90;;;;;;5042876;28;20038;-70
2024/01/13 11:36:26;;;;;;;60.58;21.23;;;4.00;99.90;;;;;;5043412;28;20024;-70
2024/01/13 11:38:52;;;;;;;55.38;20.92;;;3.90;99.90;;;;;;5039925;28;20029;-68
2024/01/13 11:41:18;;;;;;;58.78;21.42;;;3.90;99.90;;;;;;5041772;28;20022;-68
2024/01/13 11:43:45;;;;;;;51.83;21.30;;;4.00;99.90;;;;;;5040366;28;20551;-68
2024/01/13 11:46:11;;;;;;;56.00;21.27;;;4.00;99.90;;;;;;5041989;28;20020;-67
2024/01/13 11:48:40;;;;;;;54.95;19.23;;;4.10;99.90;;;;;;5042871;28;20053;-67
2024/01/13 11:51:10;;;;;;;55.33;22.80;;;4.10;99.90;;;;;;5042269;28;20017;-69
2024/01/13 11:53:41;;;;;;;52.58;20.92;;;4.10;99.90;;;;;;5036611;28;20198;-68
2024/01/13 11:56:08;;;;;;;56.00;21.30;;;4.10;99.90;;;;;;5041474;28;21410;-67
2024/01/13 11:58:35;;;;;;;55.45;20.33;;;4.20;99.90;;;;;;5039337;28;20025;-68
2024/01/13 12:01:02;;;;;;;53.53;20.00;;;4.10;99.90;;;;;;5042314;28;20025;-68
2024/01/13 12:03:28;;;;;;;51.72;20.10;;;4.00;99.90;;;;;;5041317;28;20041;-70
2024/01/13 12:05:54;;;;;;;63.25;22.13;;;4.00;99.90;;;;;;5041293;28;20034;-69
2024/01/13 12:08:19;;;;;;;53.88;20.90;;;4.10;99.90;;;;;;5035846;28;20037;-69
2024/01/13 12:10:46;;;;;;;63.92;21.27;;;4.10;99.90;;;;;;5035744;28;20512;-68
2024/01/13 12:13:18;;;;;;;56.17;20.17;;;4.10;99.90;;;;;;5037258;28;20363;-68
2024/01/13 12:15:47;;;;;;;58.05;21.00;;;4.10;99.90;;;;;;5041324;28;20033;-69
2024/01/13 12:18:21;;;;;;;58.78;21.92;;;4.10;99.90;;;;;;5040683;28;20093;-69
2024/01/13 12:20:55;;;;;;;53.70;20.42;;;4.10;99.90;;;;;;5040528;28;20044;-69
2024/01/13 12:23:20;;;;;;;;;;;4.10;99.90;;;;;;5042176;28;20032;-67
2024/01/13 12:25:46;;;;;;;50.60;18.63;;;4.10;99.90;;;;;;5040072;28;19905;-68
2024/01/13 12:28:12;;;;;;;55.33;17.95;;;4.10;99.90;;;;;;5037142;28;20041;-68
2024/01/13 12:30:39;;;;;;;51.95;20.00;;;4.10;99.90;;;;;;5034352;28;20036;-68
2024/01/13 12:33:06;;;;;;;53.90;19.55;;;4.10;99.90;;;;;;5039541;28;20028;-68
2024/01/13 12:35:31;;;;;;;59.97;20.50;;;4.10;99.90;;;;;;5040929;28;20072;-68
2024/01/13 12:37:58;;;;;;;52.35;18.63;;;4.10;99.90;;;;;;5041399;28;20025;-68
2024/01/13 12:40:24;;;;;;;59.45;20.55;;;4.10;99.90;;;;;;5040044;28;20021;-69
2024/01/13 12:42:50;;;;;;;58.22;19.70;;;4.10;99.90;;;;;;5039181;28;20095;-68
2024/01/13 12:45:17;;;;;;;58.67;20.13;;;4.10;99.90;;;;;;5041626;28;20164;-67